createdAt,value
2018-12-21T00:00:20.541Z,32.97
2018-12-21T00:02:51.782Z,33.10
2018-12-21T00:05:21.307Z,36.13
2018-12-21T00:07:50.802Z,34.63
2018-12-21T00:10:20.307Z,33.03
2018-12-21T00:12:49.806Z,37.47
2018-12-21T00:15:19.355Z,33.17
2018-12-21T00:17:48.860Z,33.93
2018-12-21T00:20:18.359Z,36.97
2018-12-21T00:22:47.895Z,34.93
2018-12-21T00:25:17.414Z,35.47
2018-12-21T00:27:46.905Z,37.17
2018-12-21T00:30:22.117Z,32.87
2018-12-21T00:32:57.805Z,31.13
2018-12-21T00:35:32.506Z,30.10
2018-12-21T00:38:07.322Z,35.00
2018-12-21T00:40:42.178Z,33.33
2018-12-21T00:44:15.578Z,32.23
2018-12-21T00:46:50.002Z,32.00
2018-12-21T00:49:19.898Z,31.20
2018-12-21T00:51:49.406Z,30.93
2018-12-21T00:54:18.946Z,33.00
2018-12-21T00:56:48.460Z,31.73
2018-12-21T00:59:17.967Z,30.87
2018-12-21T01:01:48.259Z,32.33
2018-12-21T01:04:17.816Z,32.93
2018-12-21T01:06:47.340Z,28.63
2018-12-21T01:09:16.919Z,31.80
2018-12-21T01:11:46.419Z,29.27
2018-12-21T01:14:16.716Z,28.70
2018-12-21T01:16:47.975Z,29.30
2018-12-21T01:19:17.623Z,27.73
2018-12-21T01:21:47.119Z,28.67
2018-12-21T01:24:16.610Z,31.53
2018-12-21T01:26:46.110Z,30.97
2018-12-21T01:29:15.628Z,30.27
2018-12-21T01:31:45.150Z,30.97
2018-12-21T01:34:14.667Z,30.60
2018-12-21T01:36:44.153Z,29.23
2018-12-21T01:39:13.682Z,30.33
2018-12-21T01:41:43.187Z,29.07
2018-12-21T01:44:12.453Z,29.53
2018-12-21T01:46:42.159Z,29.30
2018-12-21T01:49:11.701Z,28.80
2018-12-21T01:51:47.047Z,28.63
2018-12-21T01:54:12.383Z,28.73
2018-12-21T01:56:41.827Z,28.37
2018-12-21T01:59:11.323Z,26.77
2018-12-21T02:01:40.827Z,27.40
2018-12-21T02:04:10.327Z,26.97
2018-12-21T02:06:39.839Z,26.47
2018-12-21T02:09:09.343Z,29.27
2018-12-21T02:11:38.855Z,28.50
2018-12-21T02:14:09.438Z,29.77
2018-12-21T02:16:38.979Z,29.13
2018-12-21T02:19:08.484Z,28.10
2018-12-21T02:21:38.089Z,25.50
2018-12-21T02:24:07.818Z,27.70
2018-12-21T02:26:37.342Z,31.60
2018-12-21T02:29:06.936Z,25.93
2018-12-21T02:31:36.446Z,26.93
2018-12-21T02:34:06.004Z,25.13
2018-12-21T02:36:35.130Z,25.83
2018-12-21T02:39:06.850Z,25.57
2018-12-21T02:41:36.378Z,27.70
2018-12-21T02:44:05.874Z,27.13
2018-12-21T02:46:35.009Z,25.87
2018-12-21T02:49:04.474Z,28.03
2018-12-21T02:51:33.997Z,25.77
2018-12-21T02:54:04.009Z,25.53
2018-12-21T02:56:33.507Z,24.53
2018-12-21T02:59:03.035Z,23.40
2018-12-21T03:01:32.523Z,24.27
2018-12-21T03:04:02.027Z,24.70
2018-12-21T03:06:31.532Z,23.10
2018-12-21T03:09:01.051Z,23.40
2018-12-21T03:11:31.938Z,22.87
2018-12-21T03:14:01.443Z,23.80
2018-12-21T03:16:30.982Z,22.43
2018-12-21T03:19:00.499Z,23.17
2018-12-21T03:21:29.638Z,26.67
2018-12-21T03:23:59.083Z,22.17
2018-12-21T03:26:28.566Z,23.87
2018-12-21T03:28:58.060Z,22.83
2018-12-21T03:31:27.563Z,23.40
2018-12-21T03:33:57.073Z,22.20
2018-12-21T03:36:26.608Z,20.40
2018-12-21T03:38:56.103Z,21.60
2018-12-21T03:41:25.254Z,21.50
2018-12-21T03:43:54.699Z,22.10
2018-12-21T03:46:24.203Z,20.30
2018-12-21T03:48:53.716Z,18.87
2018-12-21T03:51:23.519Z,20.80
2018-12-21T03:53:53.043Z,22.20
2018-12-21T03:56:22.534Z,21.73
2018-12-21T03:58:52.051Z,21.63
2018-12-21T04:01:21.550Z,21.77
2018-12-21T04:03:51.039Z,21.10
2018-12-21T04:06:20.571Z,20.40
2018-12-21T04:08:50.086Z,21.77
2018-12-21T04:11:19.579Z,20.80
2018-12-21T04:13:49.133Z,19.73
2018-12-21T04:16:18.630Z,20.30
2018-12-21T04:18:48.137Z,18.73
2018-12-21T04:21:18.599Z,18.33
2018-12-21T04:23:48.186Z,19.57
2018-12-21T04:26:17.886Z,21.83
2018-12-21T04:28:47.388Z,20.60
2018-12-21T04:31:16.884Z,22.60
2018-12-21T04:33:46.442Z,21.33
2018-12-21T04:36:15.583Z,20.33
2018-12-21T04:38:45.038Z,20.53
2018-12-21T04:41:14.594Z,20.37
2018-12-21T04:43:44.094Z,19.03
2018-12-21T04:46:13.607Z,18.27
2018-12-21T04:48:43.118Z,17.10
2018-12-21T04:51:12.655Z,18.03
2018-12-21T04:53:42.159Z,18.20
2018-12-21T04:56:11.699Z,17.63
2018-12-21T04:58:41.198Z,19.07
2018-12-21T05:01:10.880Z,17.90
2018-12-21T05:03:40.398Z,18.67
2018-12-21T05:06:09.903Z,18.80
2018-12-21T05:08:39.395Z,20.43
2018-12-21T05:11:08.899Z,19.13
2018-12-21T05:13:38.966Z,20.57
2018-12-21T05:16:08.523Z,21.33
2018-12-21T05:18:38.035Z,19.97
2018-12-21T05:21:07.539Z,19.87
2018-12-21T05:23:37.062Z,19.93
2018-12-21T05:26:06.587Z,20.33
2018-12-21T05:28:36.091Z,20.37
2018-12-21T05:31:05.599Z,20.20
2018-12-21T05:33:35.134Z,20.63
2018-12-21T05:36:04.655Z,22.23
2018-12-21T05:38:34.146Z,21.90
2018-12-21T05:41:03.688Z,22.33
2018-12-21T05:43:33.194Z,24.27
2018-12-21T05:46:02.726Z,25.13
2018-12-21T05:48:32.231Z,24.33
2018-12-21T05:51:01.782Z,22.03
2018-12-21T05:53:31.286Z,21.30
2018-12-21T05:56:00.806Z,25.03
2018-12-21T05:58:30.367Z,21.57
2018-12-21T06:00:59.867Z,18.80
2018-12-21T06:03:29.406Z,20.20
2018-12-21T06:05:58.894Z,21.57
2018-12-21T06:08:28.914Z,22.60
2018-12-21T06:10:58.446Z,22.50
2018-12-21T06:13:28.247Z,20.67
2018-12-21T06:15:57.738Z,19.97
2018-12-21T06:18:27.302Z,18.43
2018-12-21T06:20:56.802Z,21.43
2018-12-21T06:23:26.315Z,19.10
2018-12-21T06:25:55.822Z,19.90
2018-12-21T06:28:25.336Z,19.83
2018-12-21T06:30:54.843Z,18.77
2018-12-21T06:33:24.360Z,19.03
2018-12-21T06:35:53.878Z,18.37
2018-12-21T06:38:23.382Z,18.93
2018-12-21T06:40:52.940Z,19.87
2018-12-21T06:43:22.438Z,19.23
2018-12-21T06:45:52.714Z,20.03
2018-12-21T06:48:22.215Z,18.93
2018-12-21T06:50:51.757Z,17.03
2018-12-21T06:53:21.377Z,17.97
2018-12-21T06:55:50.879Z,18.77
2018-12-21T06:58:20.378Z,17.23
2018-12-21T07:00:49.930Z,19.53
2018-12-21T07:03:19.070Z,19.17
2018-12-21T07:05:48.502Z,18.30
2018-12-21T07:08:18.386Z,18.67
2018-12-21T07:10:47.906Z,18.80
2018-12-21T07:13:17.419Z,20.87
2018-12-21T07:15:46.962Z,21.47
2018-12-21T07:18:16.458Z,19.13
2018-12-21T07:20:45.955Z,18.87
2018-12-21T07:23:15.466Z,17.93
2018-12-21T07:25:44.992Z,17.10
2018-12-21T07:28:14.531Z,17.03
2018-12-21T07:30:44.034Z,15.67
2018-12-21T07:33:13.540Z,18.03
2018-12-21T07:35:43.062Z,17.30
2018-12-21T07:38:12.208Z,40.33
2018-12-21T07:40:41.670Z,24.90
2018-12-21T07:43:11.173Z,19.67
2018-12-21T07:45:40.666Z,19.53
2018-12-21T07:48:10.174Z,18.70
2018-12-21T07:50:39.317Z,19.10
2018-12-21T07:53:08.736Z,19.77
2018-12-21T07:55:38.246Z,17.77
2018-12-21T07:58:07.769Z,18.60
2018-12-21T08:00:37.288Z,18.23
2018-12-21T08:03:06.802Z,19.63
2018-12-21T08:05:36.332Z,21.90
2018-12-21T08:08:05.871Z,19.13
2018-12-21T08:10:35.395Z,18.00
2018-12-21T08:13:04.931Z,18.37
2018-12-21T08:15:34.435Z,17.67
2018-12-21T08:18:03.951Z,19.53
2018-12-21T08:20:33.475Z,19.30
2018-12-21T08:23:03.032Z,21.83
2018-12-21T08:25:32.542Z,19.97
2018-12-21T08:28:02.085Z,18.93
2018-12-21T08:30:31.266Z,24.20
2018-12-21T08:33:00.763Z,33.37
2018-12-21T08:35:31.362Z,22.13
2018-12-21T08:38:00.890Z,22.93
2018-12-21T08:40:30.427Z,22.73
2018-12-21T08:42:59.935Z,19.90
2018-12-21T08:45:29.454Z,17.70
2018-12-21T08:47:58.947Z,20.13
2018-12-21T08:50:28.453Z,17.43
2018-12-21T08:52:57.966Z,20.13
2018-12-21T08:55:27.114Z,17.50
2018-12-21T08:57:56.555Z,17.67
2018-12-21T09:00:26.206Z,18.17
2018-12-21T09:02:55.787Z,18.13
2018-12-21T09:05:25.310Z,17.87
2018-12-21T09:07:55.127Z,17.13
2018-12-21T09:10:24.642Z,16.47
2018-12-21T09:12:54.266Z,16.87
2018-12-21T09:15:23.755Z,17.50
2018-12-21T09:17:53.257Z,17.60
2018-12-21T09:20:22.435Z,17.03
2018-12-21T09:22:51.852Z,16.67
2018-12-21T09:25:21.374Z,17.40
2018-12-21T09:27:50.521Z,17.33
2018-12-21T09:30:20.003Z,17.97
2018-12-21T09:32:49.510Z,17.90
2018-12-21T09:35:19.494Z,17.33
2018-12-21T09:37:51.795Z,17.13
2018-12-21T09:40:24.109Z,17.60
2018-12-21T09:42:54.891Z,18.30
2018-12-21T09:45:24.983Z,17.93
2018-12-21T09:47:55.952Z,18.87
2018-12-21T09:50:27.535Z,19.60
2018-12-21T09:52:58.651Z,19.20
2018-12-21T09:55:28.814Z,17.57
2018-12-21T09:57:58.799Z,18.63
2018-12-21T10:00:29.698Z,18.70
2018-12-21T10:02:59.909Z,19.47
2018-12-21T10:05:30.527Z,21.70
2018-12-21T10:08:01.418Z,20.10
2018-12-21T10:10:32.025Z,20.33
2018-12-21T10:13:02.601Z,21.07
2018-12-21T10:15:33.423Z,19.57
2018-12-21T10:18:02.991Z,21.47
2018-12-21T10:20:34.030Z,21.60
2018-12-21T10:23:03.269Z,19.33
2018-12-21T10:25:34.016Z,21.30
2018-12-21T10:28:03.585Z,21.40
2018-12-21T10:30:33.082Z,22.20
2018-12-21T10:33:02.613Z,22.10
2018-12-21T10:35:32.162Z,22.67
2018-12-21T10:38:01.930Z,21.87
2018-12-21T10:40:31.439Z,19.10
2018-12-21T10:43:01.055Z,20.00
2018-12-21T10:45:30.620Z,19.00
2018-12-21T10:48:00.277Z,20.07
2018-12-21T10:50:29.786Z,21.87
2018-12-21T10:53:00.620Z,20.27
2018-12-21T10:55:30.534Z,21.93
2018-12-21T10:58:00.016Z,20.77
2018-12-21T11:00:29.543Z,24.20
2018-12-21T11:02:59.067Z,27.17
2018-12-21T11:05:28.576Z,32.33
2018-12-21T11:07:57.742Z,31.90
2018-12-21T11:10:27.203Z,29.37
2018-12-21T11:12:56.385Z,28.73
2018-12-21T11:15:25.796Z,27.57
2018-12-21T11:17:55.291Z,29.97
2018-12-21T11:20:24.807Z,31.67
2018-12-21T11:22:54.581Z,29.80
2018-12-21T11:25:24.147Z,28.73
2018-12-21T11:27:53.654Z,32.90
2018-12-21T11:30:22.826Z,32.20
2018-12-21T11:32:52.240Z,25.90
2018-12-21T11:35:21.739Z,21.73
2018-12-21T11:37:51.247Z,19.37
2018-12-21T11:40:21.375Z,18.97
2018-12-21T11:42:50.874Z,17.80
2018-12-21T11:45:20.408Z,17.90
2018-12-21T11:47:49.559Z,19.83
2018-12-21T11:50:19.004Z,22.40
2018-12-21T11:52:50.956Z,21.07
2018-12-21T11:55:21.795Z,17.67
2018-12-21T12:00:35.623Z,13.87
2018-12-21T12:03:04.903Z,17.50
2018-12-21T12:05:35.055Z,14.87
2018-12-21T12:08:06.842Z,12.93
2018-12-21T12:10:37.214Z,13.00
2018-12-21T12:13:07.362Z,15.87
2018-12-21T12:15:37.934Z,18.60
2018-12-21T12:18:08.406Z,14.33
2018-12-21T12:20:37.884Z,14.00
2018-12-21T12:23:07.420Z,14.83
2018-12-21T12:25:36.931Z,14.10
2018-12-21T12:28:06.443Z,13.47
2018-12-21T12:30:35.958Z,13.00
2018-12-21T12:33:05.463Z,13.33
2018-12-21T12:35:34.966Z,13.47
2018-12-21T12:38:04.498Z,13.53
2018-12-21T12:40:33.652Z,12.10
2018-12-21T12:43:03.105Z,13.07
2018-12-21T12:45:32.654Z,13.30
2018-12-21T12:48:02.138Z,13.50
2018-12-21T12:50:31.640Z,15.93
2018-12-21T12:53:01.166Z,21.40
2018-12-21T12:55:30.675Z,22.17
2018-12-21T12:58:00.248Z,23.67
2018-12-21T13:00:29.414Z,23.20
2018-12-21T13:02:58.827Z,23.43
2018-12-21T13:05:28.431Z,24.17
2018-12-21T13:07:57.934Z,24.10
2018-12-21T13:10:27.537Z,23.73
2018-12-21T13:12:57.282Z,19.03
2018-12-21T13:15:26.793Z,19.00
2018-12-21T13:17:56.294Z,14.30
2018-12-21T13:20:25.870Z,15.87
2018-12-21T13:22:55.380Z,20.87
2018-12-21T13:25:24.926Z,20.73
2018-12-21T13:27:54.410Z,17.47
2018-12-21T13:30:24.283Z,17.90
2018-12-21T13:32:53.793Z,18.20
2018-12-21T13:35:23.318Z,17.87
2018-12-21T13:37:52.823Z,16.13
2018-12-21T13:40:22.358Z,17.00
2018-12-21T13:42:51.854Z,16.90
2018-12-21T13:45:21.344Z,16.27
2018-12-21T13:47:50.839Z,16.77
2018-12-21T13:50:20.370Z,16.80
2018-12-21T13:52:50.440Z,16.63
2018-12-21T13:55:20.760Z,15.90
2018-12-21T13:57:51.245Z,17.83
2018-12-21T14:00:21.787Z,15.20
2018-12-21T14:02:52.146Z,16.60
2018-12-21T14:05:21.882Z,17.03
2018-12-21T14:07:52.308Z,17.03
2018-12-21T14:10:22.155Z,18.10
2018-12-21T14:12:53.502Z,16.20
2018-12-21T14:15:23.914Z,16.50
2018-12-21T14:17:53.447Z,14.80
2018-12-21T14:20:24.004Z,16.20
2018-12-21T14:22:55.071Z,15.87
2018-12-21T14:25:29.044Z,15.40
2018-12-21T14:27:59.878Z,15.23
2018-12-21T14:30:30.306Z,15.27
2018-12-21T14:33:01.201Z,15.73
2018-12-21T14:35:31.499Z,16.33
2018-12-21T14:38:01.352Z,15.90
2018-12-21T14:40:31.122Z,14.67
2018-12-21T14:43:00.644Z,15.20
2018-12-21T14:45:30.804Z,15.77
2018-12-21T14:48:00.236Z,15.33
2018-12-21T14:50:29.801Z,14.20
2018-12-21T14:52:59.304Z,15.17
2018-12-21T14:55:37.261Z,15.90
2018-12-21T14:58:00.326Z,15.40
2018-12-21T15:00:30.252Z,15.87
2018-12-21T15:02:59.834Z,15.57
2018-12-21T15:05:29.331Z,15.73
2018-12-21T15:07:58.859Z,18.47
2018-12-21T15:10:28.418Z,15.60
2018-12-21T15:12:57.582Z,15.93
2018-12-21T15:15:26.991Z,19.03
2018-12-21T15:17:56.558Z,28.37
2018-12-21T15:20:26.074Z,21.43
2018-12-21T15:22:56.050Z,26.73
2018-12-21T15:25:25.611Z,29.40
2018-12-21T15:27:55.140Z,33.23
2018-12-21T15:30:24.631Z,22.90
2018-12-21T15:32:54.147Z,33.50
2018-12-21T15:35:23.634Z,29.00
2018-12-21T15:37:53.130Z,20.07
2018-12-21T15:40:22.638Z,21.80
2018-12-21T15:42:51.782Z,22.07
2018-12-21T15:45:21.198Z,24.77
2018-12-21T15:47:50.621Z,22.47
2018-12-21T15:50:23.005Z,18.87
2018-12-21T15:52:53.730Z,19.50
2018-12-21T15:55:24.290Z,18.17
2018-12-21T15:57:53.798Z,18.47
2018-12-21T16:00:24.523Z,19.03
2018-12-21T16:02:55.610Z,19.47
2018-12-21T16:05:25.114Z,19.87
2018-12-21T16:07:54.614Z,18.73
2018-12-21T16:10:24.538Z,19.70
2018-12-21T16:12:53.670Z,20.60
2018-12-21T16:15:23.998Z,19.10
2018-12-21T16:17:54.077Z,19.17
2018-12-21T16:20:24.679Z,19.23
2018-12-21T16:22:55.342Z,18.70
2018-12-21T16:25:26.252Z,17.87
2018-12-21T16:27:56.786Z,18.97
2018-12-21T16:30:27.367Z,20.43
2018-12-21T16:32:58.147Z,20.63
2018-12-21T16:35:28.908Z,19.40
2018-12-21T16:37:59.556Z,19.57
2018-12-21T16:40:30.319Z,20.50
2018-12-21T16:43:00.408Z,18.73
2018-12-21T16:45:30.036Z,18.63
2018-12-21T16:48:00.181Z,17.50
2018-12-21T16:50:30.883Z,19.40
2018-12-21T16:55:44.151Z,22.83
2018-12-21T16:58:14.841Z,23.97
2018-12-21T17:00:44.339Z,23.10
2018-12-21T17:03:15.763Z,22.43
2018-12-21T17:05:45.343Z,21.60
2018-12-21T17:08:14.842Z,20.37
2018-12-21T17:10:45.170Z,19.10
2018-12-21T17:13:14.686Z,19.93
2018-12-21T17:15:43.843Z,20.13
2018-12-21T17:18:13.784Z,20.13
2018-12-21T17:20:44.322Z,21.50
2018-12-21T17:23:13.889Z,21.70
2018-12-21T17:25:43.688Z,21.37
2018-12-21T17:28:13.695Z,17.40
2018-12-21T17:30:43.492Z,19.97
2018-12-21T17:33:13.564Z,18.10
2018-12-21T17:35:43.277Z,18.93
2018-12-21T17:38:13.152Z,19.00
2018-12-21T17:40:42.655Z,17.83
2018-12-21T17:43:12.187Z,18.80
2018-12-21T17:45:41.664Z,20.17
2018-12-21T17:48:10.807Z,18.77
2018-12-21T17:50:40.247Z,19.10
2018-12-21T17:53:09.763Z,20.17
2018-12-21T17:55:38.904Z,18.63
2018-12-21T17:58:08.354Z,19.50
2018-12-21T18:00:38.367Z,18.40
2018-12-21T18:03:10.911Z,18.27
2018-12-21T18:05:40.435Z,18.37
2018-12-21T18:08:09.974Z,18.57
2018-12-21T18:10:39.473Z,17.63
2018-12-21T18:13:08.967Z,19.80
2018-12-21T18:15:38.474Z,19.83
2018-12-21T18:18:07.991Z,21.43
2018-12-21T18:20:37.483Z,21.03
2018-12-21T18:23:09.215Z,20.87
2018-12-21T18:25:39.189Z,21.40
2018-12-21T18:28:11.260Z,18.20
2018-12-21T18:30:46.539Z,18.10
2018-12-21T18:33:18.119Z,17.47
2018-12-21T18:35:47.626Z,18.23
2018-12-21T18:38:20.002Z,18.47
2018-12-21T18:40:49.508Z,19.93
2018-12-21T18:43:18.641Z,21.50
2018-12-21T18:45:48.113Z,19.17
2018-12-21T18:48:17.830Z,20.33
2018-12-21T18:50:47.410Z,17.87
2018-12-21T18:53:16.972Z,16.40
2018-12-21T18:55:48.887Z,18.93
2018-12-21T18:58:18.390Z,17.30
2018-12-21T19:00:47.911Z,18.60
2018-12-21T19:03:17.086Z,17.50
2018-12-21T19:05:46.510Z,17.20
2018-12-21T19:08:16.016Z,17.30
2018-12-21T19:10:45.523Z,17.57
2018-12-21T19:13:15.044Z,17.17
2018-12-21T19:15:44.190Z,19.37
2018-12-21T19:18:13.607Z,17.97
2018-12-21T19:20:43.209Z,18.93
2018-12-21T19:23:12.739Z,18.03
2018-12-21T19:25:42.234Z,19.17
2018-12-21T19:28:11.727Z,19.43
2018-12-21T19:30:41.755Z,19.13
2018-12-21T19:33:11.269Z,17.50
2018-12-21T19:35:41.555Z,17.20
2018-12-21T19:38:11.054Z,20.50
2018-12-21T19:40:40.569Z,20.30
2018-12-21T19:43:10.080Z,20.00
2018-12-21T19:45:39.610Z,21.33
2018-12-21T19:48:09.112Z,22.73
2018-12-21T19:50:38.598Z,21.13
2018-12-21T19:53:08.099Z,19.13
2018-12-21T19:55:46.951Z,21.10
2018-12-21T19:58:17.431Z,21.03
2018-12-21T20:00:46.966Z,20.20
2018-12-21T20:03:16.474Z,20.60
2018-12-21T20:05:45.610Z,22.77
2018-12-21T20:08:14.778Z,20.47
2018-12-21T20:10:59.064Z,21.13
2018-12-21T20:13:28.218Z,22.30
2018-12-21T20:15:57.668Z,22.93
2018-12-21T20:18:33.751Z,22.07
2018-12-21T20:21:03.001Z,23.53
2018-12-21T20:23:32.451Z,22.10
2018-12-21T20:26:01.735Z,22.67
2018-12-21T20:28:31.186Z,22.70
2018-12-21T20:31:02.763Z,21.37
2018-12-21T20:33:32.445Z,21.63
2018-12-21T20:36:02.611Z,21.70
2018-12-21T20:38:37.433Z,22.57
2018-12-21T20:41:08.424Z,22.60
2018-12-21T20:43:37.873Z,24.47
2018-12-21T20:46:08.480Z,24.23
2018-12-21T20:48:38.158Z,23.97
2018-12-21T20:51:07.870Z,26.60
2018-12-21T20:53:37.079Z,23.63
2018-12-21T20:56:06.514Z,23.07
2018-12-21T20:58:39.451Z,24.27
2018-12-21T21:01:08.681Z,22.67
2018-12-21T21:03:38.311Z,24.10
2018-12-21T21:06:08.134Z,21.93
2018-12-21T21:08:38.249Z,23.33
2018-12-21T21:11:07.772Z,20.50
2018-12-21T21:13:36.933Z,23.00
2018-12-21T21:16:06.434Z,24.63
2018-12-21T21:18:35.965Z,23.77
2018-12-21T21:21:05.838Z,24.03
2018-12-21T21:23:35.487Z,23.63
2018-12-21T21:26:05.066Z,22.37
2018-12-21T21:28:34.737Z,20.30
2018-12-21T21:31:04.282Z,19.63
2018-12-21T21:33:33.862Z,20.17
2018-12-21T21:36:03.382Z,19.63
2018-12-21T21:38:32.916Z,18.83
2018-12-21T21:41:02.108Z,18.47
2018-12-21T21:46:48.136Z,16.47
2018-12-21T21:49:19.455Z,18.30
2018-12-21T21:51:49.901Z,18.53
2018-12-21T21:54:19.422Z,18.63
2018-12-21T21:56:48.954Z,17.53
2018-12-21T21:59:28.918Z,17.00
2018-12-21T22:02:03.329Z,18.93
2018-12-21T22:04:38.844Z,18.63
2018-12-21T22:07:08.392Z,19.60
2018-12-21T22:09:37.891Z,18.17
2018-12-21T22:12:07.386Z,17.93
2018-12-21T22:14:37.346Z,17.50
2018-12-21T22:17:06.846Z,21.97
2018-12-21T22:19:36.355Z,15.97
2018-12-21T22:22:05.851Z,16.53
2018-12-21T22:24:35.658Z,18.47
2018-12-21T22:27:05.181Z,18.13
2018-12-21T22:29:34.947Z,19.73
2018-12-21T22:32:04.914Z,21.57
2018-12-21T22:34:34.447Z,18.03
2018-12-21T22:37:11.476Z,18.03
2018-12-21T22:39:41.862Z,16.87
2018-12-21T22:42:11.374Z,16.60
2018-12-21T22:44:40.877Z,16.67
2018-12-21T22:47:10.390Z,15.93
2018-12-21T22:49:39.898Z,13.13
2018-12-21T22:52:09.414Z,14.30
2018-12-21T22:54:38.947Z,13.40
2018-12-21T22:57:08.482Z,13.47
2018-12-21T22:59:37.992Z,14.17
2018-12-21T23:02:07.499Z,13.17
2018-12-21T23:04:37.042Z,13.83
2018-12-21T23:07:06.555Z,12.87
2018-12-21T23:09:36.043Z,13.20
2018-12-21T23:12:05.918Z,12.50
2018-12-21T23:14:35.410Z,12.27
2018-12-21T23:17:04.950Z,12.03
2018-12-21T23:19:34.446Z,12.13
2018-12-21T23:22:03.971Z,11.77
2018-12-21T23:24:33.471Z,12.20
2018-12-21T23:27:03.002Z,11.73
2018-12-21T23:29:32.612Z,12.40
2018-12-21T23:32:02.146Z,11.63
2018-12-21T23:34:31.671Z,10.93
2018-12-21T23:37:01.158Z,11.00
2018-12-21T23:39:30.655Z,11.10
2018-12-21T23:41:59.843Z,11.13
2018-12-21T23:44:29.245Z,10.50
2018-12-21T23:46:58.740Z,10.97
2018-12-21T23:49:28.274Z,10.43
2018-12-21T23:51:58.043Z,11.20
2018-12-21T23:54:27.584Z,11.10
2018-12-21T23:56:57.076Z,11.30
2018-12-21T23:59:26.574Z,11.23
